Time;durP1;ratioP1;P1;durP2;ratioP2;P2;SDS_P1;SDS_P2;PMS_P1;PMS_P2;Temp;Humidity;BMP_temperature;BMP_pressure;BME280_temperature;BME280_humidity;BME280_pressure;Samples;Min_cycle;Max_cycle;Signal;HPM_P1;HPM_P2
2022/05/10 00:00:50;;;;;;;11.23;4.45;;;14.40;99.90;;;;;;5070855;28;20040;-64
2022/05/10 00:03:17;;;;;;;13.90;4.78;;;14.40;99.90;;;;;;5070688;28;20386;-64
2022/05/10 00:05:43;;;;;;;8.73;4.25;;;14.50;99.90;;;;;;5069921;28;20101;-64
2022/05/10 00:08:12;;;;;;;10.60;4.50;;;14.40;99.90;;;;;;5070008;28;20037;-64
2022/05/10 00:10:38;;;;;;;15.77;4.50;;;14.50;99.90;;;;;;5069366;28;20504;-64
2022/05/10 00:13:04;;;;;;;10.70;4.32;;;14.40;99.90;;;;;;5070377;28;20136;-64
2022/05/10 00:15:30;;;;;;;13.50;4.88;;;14.30;99.90;;;;;;5070343;28;20115;-64
2022/05/10 00:17:56;;;;;;;12.90;5.63;;;14.30;99.90;;;;;;5070239;28;20533;-64
2022/05/10 00:20:24;;;;;;;13.35;4.80;;;14.30;99.90;;;;;;5070364;28;20064;-64
2022/05/10 00:22:50;;;;;;;12.77;4.65;;;14.20;99.90;;;;;;5070319;28;20056;-64
2022/05/10 00:25:20;;;;;;;9.50;4.85;;;14.20;99.90;;;;;;5070933;28;20400;-64
2022/05/10 00:27:46;;;;;;;9.75;5.20;;;14.20;99.90;;;;;;5070657;28;20044;-64
2022/05/10 00:30:12;;;;;;;10.02;4.85;;;14.10;99.90;;;;;;5068812;28;20040;-64
2022/05/10 00:32:39;;;;;;;8.52;4.50;;;14.10;99.90;;;;;;5070565;28;20080;-64
2022/05/10 00:35:10;;;;;;;10.52;4.32;;;14.10;99.90;;;;;;5070746;28;20048;-64
2022/05/10 00:37:36;;;;;;;12.13;4.55;;;14.20;99.90;;;;;;5070851;28;20044;-64
2022/05/10 00:40:03;;;;;;;11.50;4.78;;;14.20;99.90;;;;;;5069819;28;20059;-64
2022/05/10 00:42:38;;;;;;;11.57;5.20;;;14.20;99.90;;;;;;5070108;28;20049;-64
2022/05/10 00:45:15;;;;;;;12.73;5.00;;;14.20;99.90;;;;;;5070461;28;20097;-64
2022/05/10 00:47:58;;;;;;;11.70;4.97;;;14.30;99.90;;;;;;5070529;28;20497;-64
2022/05/10 00:50:31;;;;;;;9.55;5.43;;;14.20;99.90;;;;;;5071400;28;20083;-64
2022/05/10 00:53:14;;;;;;;12.07;4.93;;;14.20;99.90;;;;;;5074697;28;20055;-64
2022/05/10 00:56:01;;;;;;;7.55;4.85;;;14.20;99.90;;;;;;5073958;28;20051;-64
2022/05/10 00:58:43;;;;;;;11.65;5.70;;;14.20;99.90;;;;;;5074043;28;20116;-64
2022/05/10 01:01:11;;;;;;;12.02;5.13;;;14.20;99.90;;;;;;5072820;28;20496;-65
2022/05/10 01:03:44;;;;;;;13.50;5.45;;;14.20;99.90;;;;;;5074683;28;20040;-64
2022/05/10 01:06:21;;;;;;;10.07;5.93;;;14.10;99.90;;;;;;5074553;28;20032;-64
2022/05/10 01:09:12;;;;;;;6.93;5.30;;;14.10;99.90;;;;;;5074221;28;20496;-64
2022/05/10 01:11:51;;;;;;;13.32;5.40;;;14.20;99.90;;;;;;5074498;28;20048;-64
2022/05/10 01:14:26;;;;;;;11.30;5.25;;;14.10;99.90;;;;;;5074328;28;20121;-64
2022/05/10 01:16:52;;;;;;;14.07;6.05;;;14.10;99.90;;;;;;5074153;28;20090;-64
2022/05/10 01:19:18;;;;;;;11.05;5.38;;;14.20;99.90;;;;;;5073840;28;20097;-64
2022/05/10 01:21:49;;;;;;;15.27;5.93;;;14.20;99.90;;;;;;5074127;28;20431;-64
2022/05/10 01:24:48;;;;;;;9.93;5.90;;;14.10;99.90;;;;;;5073889;28;20059;-64
2022/05/10 01:27:20;;;;;;;13.25;5.53;;;14.20;99.90;;;;;;5073994;28;20043;-64
2022/05/10 01:30:05;;;;;;;13.68;5.65;;;14.20;99.90;;;;;;5072884;28;20558;-64
2022/05/10 01:35:55;;;;;;;9.75;5.13;;;14.20;99.90;;;;;;5073719;28;20489;-64
2022/05/10 01:38:33;;;;;;;15.57;5.97;;;14.10;99.90;;;;;;5073497;28;20044;-64
2022/05/10 01:41:16;;;;;;;11.65;6.18;;;14.10;99.90;;;;;;5073711;28;20071;-64
2022/05/10 01:43:54;;;;;;;13.05;5.40;;;14.00;99.90;;;;;;5072203;28;20552;-64
2022/05/10 01:46:25;;;;;;;11.82;6.07;;;14.00;99.90;;;;;;5073157;28;20095;-64
2022/05/10 01:48:58;;;;;;;11.07;5.72;;;14.00;99.90;;;;;;5072902;28;20439;-64
2022/05/10 01:51:32;;;;;;;13.48;6.63;;;14.00;99.90;;;;;;5072958;28;20037;-64
2022/05/10 01:53:57;;;;;;;12.05;5.63;;;13.90;99.90;;;;;;5073247;28;20072;-64
2022/05/10 01:56:25;;;;;;;9.02;5.63;;;13.90;99.90;;;;;;5073439;28;20071;-64
2022/05/10 01:58:53;;;;;;;17.92;6.63;;;13.90;99.90;;;;;;5072585;28;20644;-64
2022/05/10 02:01:27;;;;;;;13.57;7.05;;;13.90;99.90;;;;;;5072712;28;20578;-64
2022/05/10 02:04:07;;;;;;;13.43;7.40;;;13.90;99.90;;;;;;5072816;28;20050;-64
2022/05/10 02:07:02;;;;;;;16.33;8.48;;;14.00;99.90;;;;;;5073402;28;20044;-64
2022/05/10 02:09:40;;;;;;;19.45;8.43;;;14.00;99.90;;;;;;5063854;28;20052;-64
2022/05/10 02:12:12;;;;;;;15.52;7.38;;;14.00;99.90;;;;;;5073105;28;20045;-64
2022/05/10 02:14:46;;;;;;;15.40;7.70;;;14.00;99.90;;;;;;5072974;28;20578;-64
2022/05/10 02:17:30;;;;;;;20.83;7.95;;;14.00;99.90;;;;;;5073028;28;20036;-64
2022/05/10 02:20:10;;;;;;;15.57;8.95;;;14.00;99.90;;;;;;5072896;28;20445;-64
2022/05/10 02:22:42;;;;;;;15.15;9.18;;;13.90;99.90;;;;;;5072744;28;20135;-64
2022/05/10 02:25:14;;;;;;;18.05;8.82;;;13.90;99.90;;;;;;5072823;28;20033;-64
2022/05/10 02:27:54;;;;;;;15.63;9.45;;;13.90;99.90;;;;;;5072691;28;20125;-64
2022/05/10 02:30:24;;;;;;;16.50;9.68;;;14.00;99.90;;;;;;5072454;28;20404;-64
2022/05/10 02:33:06;;;;;;;14.05;9.00;;;14.00;99.90;;;;;;5072702;28;20492;-64
2022/05/10 02:35:55;;;;;;;14.20;9.33;;;14.00;99.90;;;;;;5072690;28;20098;-64
2022/05/10 02:38:37;;;;;;;16.67;9.25;;;14.00;99.90;;;;;;5072549;28;20461;-64
2022/05/10 02:41:09;;;;;;;22.73;10.63;;;14.00;99.90;;;;;;5072594;28;20496;-64
2022/05/10 02:43:42;;;;;;;22.05;10.60;;;14.00;99.90;;;;;;5072309;28;20095;-64
2022/05/10 02:46:08;;;;;;;17.33;9.98;;;14.00;99.90;;;;;;5071139;28;20400;-64
2022/05/10 02:48:35;;;;;;;20.05;10.98;;;14.00;99.90;;;;;;5071994;28;20040;-65
2022/05/10 02:51:01;;;;;;;24.67;11.27;;;14.00;99.90;;;;;;5072454;28;20033;-64
2022/05/10 02:53:28;;;;;;;22.92;11.88;;;14.00;99.90;;;;;;5072263;28;20039;-64
2022/05/10 02:55:57;;;;;;;14.85;11.15;;;14.00;99.90;;;;;;5072234;28;20492;-64
2022/05/10 02:58:43;;;;;;;21.95;10.95;;;14.00;99.90;;;;;;5071688;28;20039;-64
2022/05/10 03:01:18;;;;;;;17.73;10.73;;;14.00;99.90;;;;;;5071994;28;20048;-64
2022/05/10 03:03:44;;;;;;;16.83;11.55;;;14.00;99.90;;;;;;5072215;28;20408;-65
2022/05/10 03:06:13;;;;;;;24.02;11.75;;;14.00;99.90;;;;;;5071896;28;20040;-64
2022/05/10 03:08:39;;;;;;;17.58;11.40;;;14.00;99.90;;;;;;5071520;28;20068;-64
2022/05/10 03:11:04;;;;;;;22.98;11.95;;;14.00;99.90;;;;;;5072092;28;20492;-64
2022/05/10 03:13:30;;;;;;;17.77;12.18;;;14.00;99.90;;;;;;5071918;28;20120;-64
2022/05/10 03:15:55;;;;;;;18.77;11.65;;;14.00;99.90;;;;;;5071737;28;20043;-64
2022/05/10 03:18:21;;;;;;;19.55;12.02;;;14.00;99.90;;;;;;5071447;28;20052;-64
2022/05/10 03:20:46;;;;;;;26.05;12.60;;;13.90;99.90;;;;;;5071435;28;20068;-64
2022/05/10 03:23:12;;;;;;;16.15;11.75;;;13.90;99.90;;;;;;5071509;28;20040;-64
2022/05/10 03:25:38;;;;;;;26.48;11.88;;;14.00;99.90;;;;;;5071738;28;20746;-64
2022/05/10 03:28:04;;;;;;;22.02;12.73;;;14.00;99.90;;;;;;5071474;28;20036;-64
2022/05/10 03:30:30;;;;;;;21.48;12.35;;;14.00;99.90;;;;;;5071277;28;20048;-65
2022/05/10 03:32:56;;;;;;;22.02;13.25;;;14.00;99.90;;;;;;5071590;28;20044;-64
2022/05/10 03:35:22;;;;;;;23.58;12.55;;;13.90;99.90;;;;;;5071517;28;20103;-64
2022/05/10 03:37:48;;;;;;;21.92;13.00;;;14.00;99.90;;;;;;5071015;28;20048;-64
2022/05/10 03:40:14;;;;;;;23.20;13.73;;;13.90;99.90;;;;;;5071381;28;20049;-64
2022/05/10 03:42:45;;;;;;;24.95;13.23;;;13.90;99.90;;;;;;5070977;28;20173;-64
2022/05/10 03:45:11;;;;;;;27.25;14.52;;;14.00;99.90;;;;;;5070733;28;20028;-64
2022/05/10 03:47:37;;;;;;;25.02;13.23;;;14.00;99.90;;;;;;5071034;28;20043;-64
2022/05/10 03:50:04;;;;;;;21.05;13.80;;;13.90;99.90;;;;;;5070947;28;20520;-64
2022/05/10 03:52:30;;;;;;;30.10;14.88;;;13.90;99.90;;;;;;5071086;28;20055;-64
2022/05/10 03:54:55;;;;;;;26.02;14.93;;;14.00;99.90;;;;;;5069722;28;20036;-65
2022/05/10 03:57:21;;;;;;;22.98;13.40;;;13.90;99.90;;;;;;5067770;28;20385;-65
2022/05/10 03:59:47;;;;;;;24.77;13.98;;;14.00;99.90;;;;;;5067346;28;20062;-64
2022/05/10 04:02:13;;;;;;;27.25;14.57;;;14.00;99.90;;;;;;5071100;28;20040;-64
2022/05/10 04:04:39;;;;;;;26.45;14.80;;;14.00;99.90;;;;;;5070456;28;20397;-64
2022/05/10 04:07:06;;;;;;;28.83;13.23;;;14.10;99.90;;;;;;5070182;28;20068;-64
2022/05/10 04:09:32;;;;;;;27.73;14.55;;;14.00;99.90;;;;;;5068875;28;20033;-64
2022/05/10 04:11:57;;;;;;;24.35;14.20;;;14.00;99.90;;;;;;5070620;28;20036;-64
2022/05/10 04:14:24;;;;;;;22.13;14.98;;;14.00;99.90;;;;;;5070812;28;20415;-64
2022/05/10 04:16:50;;;;;;;27.70;15.85;;;14.00;99.90;;;;;;5070905;28;20037;-64
2022/05/10 04:19:15;;;;;;;22.67;14.73;;;14.00;99.90;;;;;;5070453;28;20051;-64
2022/05/10 04:21:41;;;;;;;25.55;14.93;;;14.00;99.90;;;;;;5070588;28;20041;-64
2022/05/10 04:24:07;;;;;;;27.48;16.05;;;14.00;99.90;;;;;;5071070;28;20036;-64
2022/05/10 04:26:33;;;;;;;20.58;14.15;;;14.00;99.90;;;;;;5069722;28;20497;-65
2022/05/10 04:28:58;;;;;;;24.90;14.48;;;14.10;99.90;;;;;;5069367;28;20044;-64
2022/05/10 04:31:24;;;;;;;31.00;15.73;;;14.10;99.90;;;;;;5070259;28;20036;-64
2022/05/10 04:33:50;;;;;;;24.65;15.13;;;14.10;99.90;;;;;;5070254;28;20036;-64
2022/05/10 04:36:15;;;;;;;24.23;14.25;;;14.10;99.90;;;;;;5070546;28;20484;-64
2022/05/10 04:38:44;;;;;;;24.38;13.88;;;14.10;99.90;;;;;;5070047;28;20036;-64
2022/05/10 04:41:27;;;;;;;28.35;14.90;;;14.20;99.90;;;;;;5070631;28;20036;-65
2022/05/10 04:43:54;;;;;;;31.98;14.27;;;14.20;99.90;;;;;;5070613;28;20420;-64
2022/05/10 04:46:20;;;;;;;25.58;13.95;;;14.20;99.90;;;;;;5070570;28;20037;-65
2022/05/10 04:48:45;;;;;;;26.33;14.27;;;14.20;99.90;;;;;;5068712;28;20477;-65
2022/05/10 04:51:11;;;;;;;21.17;14.45;;;14.30;99.90;;;;;;5069767;28;20040;-64
2022/05/10 04:53:36;;;;;;;23.85;14.38;;;14.30;99.90;;;;;;5068769;28;20044;-64
2022/05/10 04:56:05;;;;;;;26.00;13.95;;;14.30;99.90;;;;;;5069085;28;20582;-64
2022/05/10 04:58:31;;;;;;;24.33;14.32;;;14.30;99.90;;;;;;5069634;28;20036;-64
2022/05/10 05:01:03;;;;;;;23.67;14.20;;;14.40;99.90;;;;;;5070273;28;20447;-64
2022/05/10 05:03:28;;;;;;;25.40;14.77;;;14.40;99.90;;;;;;5070387;28;20041;-65
2022/05/10 05:05:54;;;;;;;30.30;15.35;;;14.40;99.90;;;;;;5070606;28;20051;-64
2022/05/10 05:08:19;;;;;;;27.33;14.30;;;14.50;99.90;;;;;;5070001;28;20033;-64
2022/05/10 05:10:45;;;;;;;21.58;14.23;;;14.50;99.90;;;;;;5070399;28;20476;-65
2022/05/10 05:13:10;;;;;;;24.90;13.93;;;14.50;99.90;;;;;;5070238;28;20044;-65
2022/05/10 05:15:36;;;;;;;22.10;13.90;;;14.50;99.90;;;;;;5070280;28;20115;-64
2022/05/10 05:18:03;;;;;;;26.15;15.20;;;14.60;99.90;;;;;;5069856;28;20041;-65
2022/05/10 05:20:30;;;;;;;28.42;14.07;;;14.60;99.90;;;;;;5070136;28;20080;-65
2022/05/10 05:22:56;;;;;;;25.88;14.75;;;14.70;99.90;;;;;;5070488;28;20564;-65
2022/05/10 05:25:21;;;;;;;29.02;16.08;;;14.70;99.90;;;;;;5070282;28;20119;-65
2022/05/10 05:27:47;;;;;;;28.15;14.90;;;14.70;99.90;;;;;;5070087;28;20072;-65
2022/05/10 05:30:12;;;;;;;31.42;16.25;;;14.70;99.90;;;;;;5069573;28;20040;-65
2022/05/10 05:32:40;;;;;;;29.30;14.90;;;14.70;99.90;;;;;;5069077;28;20519;-65
2022/05/10 05:35:06;;;;;;;33.72;16.00;;;14.70;99.90;;;;;;5069068;28;20154;-65
2022/05/10 05:37:35;;;;;;;29.35;15.77;;;14.80;99.90;;;;;;5071488;28;20063;-64
2022/05/10 05:40:03;;;;;;;27.92;15.27;;;14.80;99.90;;;;;;5073296;28;20036;-65
2022/05/10 05:42:29;;;;;;;28.42;15.63;;;14.90;99.90;;;;;;5072610;28;20079;-65
2022/05/10 05:44:55;;;;;;;31.52;15.57;;;14.90;99.90;;;;;;5073609;28;20056;-65
2022/05/10 05:47:20;;;;;;;32.05;14.95;;;14.90;99.90;;;;;;5073675;28;20400;-64
2022/05/10 05:49:46;;;;;;;26.38;14.30;;;15.00;99.90;;;;;;5073449;28;20131;-65
2022/05/10 05:52:13;;;;;;;27.70;14.30;;;15.00;99.90;;;;;;5073581;28;20047;-65
2022/05/10 05:54:38;;;;;;;27.02;14.57;;;15.10;99.90;;;;;;5073522;28;20071;-65
2022/05/10 05:57:06;;;;;;;27.67;15.80;;;15.10;99.90;;;;;;5072983;28;20484;-64
2022/05/10 05:59:33;;;;;;;27.63;16.10;;;15.10;99.90;;;;;;5072748;28;20036;-64
2022/05/10 06:01:58;;;;;;;25.90;15.25;;;15.20;99.90;;;;;;5073286;28;20534;-65
2022/05/10 06:04:25;;;;;;;30.55;15.55;;;15.20;99.90;;;;;;5073446;28;20048;-64
2022/05/10 06:06:51;;;;;;;28.42;15.57;;;15.30;99.90;;;;;;5073089;28;20416;-64
2022/05/10 06:09:22;;;;;;;27.10;15.43;;;15.30;99.90;;;;;;5072888;28;20033;-64
2022/05/10 06:11:49;;;;;;;24.48;14.40;;;15.30;99.90;;;;;;5073130;28;20052;-63
2022/05/10 06:14:14;;;;;;;27.95;14.93;;;15.40;99.90;;;;;;5072889;28;20580;-64
2022/05/10 06:16:40;;;;;;;24.92;15.05;;;15.50;99.90;;;;;;5073065;28;20032;-64
2022/05/10 06:19:08;;;;;;;27.98;16.00;;;15.40;99.90;;;;;;5072702;28;20044;-64
2022/05/10 06:21:33;;;;;;;32.85;16.20;;;15.50;99.90;;;;;;5077448;28;20055;-64
2022/05/10 06:23:59;;;;;;;22.15;15.05;;;15.60;99.90;;;;;;5079681;28;20040;-64
2022/05/10 06:26:24;;;;;;;30.55;15.55;;;15.60;99.90;;;;;;5070905;28;20055;-65
2022/05/10 06:28:50;;;;;;;28.52;15.27;;;15.70;99.90;;;;;;5070903;28;20082;-65
2022/05/10 06:31:15;;;;;;;30.30;16.23;;;15.70;99.90;;;;;;5072751;28;20094;-64
2022/05/10 06:33:41;;;;;;;24.52;13.63;;;15.80;99.90;;;;;;5072781;28;20036;-68
2022/05/10 06:36:06;;;;;;;24.90;14.95;;;15.90;99.90;;;;;;5073235;28;20094;-67
2022/05/10 06:38:34;;;;;;;26.63;16.30;;;16.00;99.90;;;;;;5079223;28;20070;-67
2022/05/10 06:41:01;;;;;;;31.05;16.75;;;16.00;99.90;;;;;;5079551;28;20045;-67
2022/05/10 06:43:28;;;;;;;25.65;15.93;;;16.10;99.90;;;;;;5081566;28;20042;-67
2022/05/10 06:45:57;;;;;;;26.13;15.80;;;16.30;99.90;;;;;;5082933;28;20528;-67
2022/05/10 06:48:24;;;;;;;33.97;16.88;;;16.40;99.90;;;;;;5080912;28;20036;-67
2022/05/10 06:50:50;;;;;;;26.73;15.80;;;16.50;99.90;;;;;;5079836;28;20028;-67
2022/05/10 06:53:16;;;;;;;25.95;16.13;;;16.60;99.90;;;;;;5082777;28;20531;-67
2022/05/10 06:55:42;;;;;;;31.20;16.20;;;16.60;99.90;;;;;;5096795;28;20076;-67
2022/05/10 06:58:09;;;;;;;25.65;15.95;;;16.60;99.90;;;;;;5080859;28;20036;-67
2022/05/10 07:00:37;;;;;;;29.25;16.50;;;16.60;99.90;;;;;;5085873;28;20051;-67
2022/05/10 07:03:14;;;;;;;27.27;15.73;;;16.70;99.90;;;;;;5072508;28;20044;-67
2022/05/10 07:05:42;;;;;;;25.58;16.30;;;16.70;99.90;;;;;;5092177;28;20450;-67
2022/05/10 07:08:08;;;;;;;31.27;17.10;;;16.70;99.90;;;;;;5089919;28;20083;-67
2022/05/10 07:10:34;;;;;;;29.02;16.98;;;16.80;99.90;;;;;;5091640;28;20064;-67
2022/05/10 07:12:59;;;;;;;29.55;17.60;;;16.80;99.90;;;;;;5091146;28;20036;-66
2022/05/10 07:15:25;;;;;;;29.38;16.90;;;16.90;99.90;;;;;;5091993;28;20089;-67
2022/05/10 07:17:52;;;;;;;25.98;17.02;;;17.00;99.90;;;;;;5091292;28;20051;-67
2022/05/10 07:20:19;;;;;;;29.15;16.60;;;17.20;99.90;;;;;;5090953;28;20044;-67
2022/05/10 07:22:46;;;;;;;26.75;17.05;;;17.30;99.90;;;;;;5091023;28;20047;-65
2022/05/10 07:25:24;;;;;;;24.92;16.02;;;17.60;99.90;;;;;;5091281;28;20032;-67
2022/05/10 07:27:49;;;;;;;25.20;17.05;;;17.80;99.90;;;;;;5088549;28;20539;-67
2022/05/10 07:30:15;;;;;;;27.80;16.25;;;17.90;99.90;;;;;;5088494;28;20173;-67
2022/05/10 07:32:41;;;;;;;26.90;16.05;;;18.00;99.90;;;;;;5091833;28;20072;-68
2022/05/10 07:35:07;;;;;;;22.85;15.70;;;18.10;99.90;;;;;;5091752;28;20116;-68
2022/05/10 07:37:38;;;;;;;29.10;16.08;;;18.30;99.90;;;;;;5089969;28;20505;-67
2022/05/10 07:40:05;;;;;;;28.58;16.48;;;18.40;99.90;;;;;;5091106;28;20044;-68
2022/05/10 07:42:30;;;;;;;23.75;13.43;;;18.50;99.90;;;;;;5091297;28;20051;-64
2022/05/10 07:44:56;;;;;;;24.60;15.38;;;18.60;99.90;;;;;;5090124;28;20040;-64
2022/05/10 07:47:21;;;;;;;24.73;15.57;;;18.60;99.90;;;;;;5091440;28;20040;-64
2022/05/10 07:49:47;;;;;;;26.73;15.80;;;18.90;99.90;;;;;;5091026;28;20602;-64
2022/05/10 07:52:13;;;;;;;25.90;15.73;;;19.00;99.90;;;;;;5091371;28;20054;-64
2022/05/10 07:54:39;;;;;;;27.15;15.60;;;19.10;99.90;;;;;;5091389;28;20054;-64
2022/05/10 07:57:05;;;;;;;25.17;14.45;;;19.00;99.90;;;;;;5091390;28;20416;-64
2022/05/10 07:59:31;;;;;;;27.65;15.70;;;19.10;99.90;;;;;;5090334;28;20032;-64
2022/05/10 08:01:57;;;;;;;23.63;15.75;;;19.30;99.90;;;;;;5089742;28;20051;-64
2022/05/10 08:04:23;;;;;;;23.15;13.80;;;19.40;99.90;;;;;;5091138;28;20040;-64
2022/05/10 08:06:49;;;;;;;22.55;13.70;;;19.50;99.90;;;;;;5090502;28;20036;-65
2022/05/10 08:09:14;;;;;;;25.63;13.80;;;19.60;99.90;;;;;;5090247;28;20057;-65
2022/05/10 08:11:41;;;;;;;23.48;12.65;;;19.60;99.90;;;;;;5090273;28;20035;-64
2022/05/10 08:14:06;;;;;;;19.55;12.13;;;19.90;99.90;;;;;;5089843;28;20040;-65
2022/05/10 08:16:33;;;;;;;23.77;12.15;;;20.00;99.90;;;;;;5090398;28;20067;-65
2022/05/10 08:18:59;;;;;;;22.17;12.25;;;20.00;99.90;;;;;;5090172;28;20115;-65
2022/05/10 08:21:25;;;;;;;24.73;12.20;;;20.10;99.90;;;;;;5090915;28;20039;-65
2022/05/10 08:23:53;;;;;;;23.38;11.60;;;20.10;99.90;;;;;;5090705;28;20492;-67
2022/05/10 08:26:20;;;;;;;17.60;10.88;;;20.10;99.90;;;;;;5090178;28;20091;-67
2022/05/10 08:28:45;;;;;;;19.55;11.43;;;20.10;99.90;;;;;;5090432;28;20089;-69
2022/05/10 08:31:11;;;;;;;18.60;10.40;;;20.10;99.90;;;;;;5090518;28;20107;-68
2022/05/10 08:33:39;;;;;;;19.73;10.88;;;20.10;99.90;;;;;;5089677;28;20516;-68
2022/05/10 08:36:08;;;;;;;16.85;10.55;;;20.10;99.90;;;;;;5089840;28;20521;-69
2022/05/10 08:38:33;;;;;;;21.55;10.55;;;20.00;99.90;;;;;;5090475;28;20518;-69
2022/05/10 08:41:05;;;;;;;18.45;10.60;;;20.10;99.90;;;;;;5089899;28;20040;-68
2022/05/10 08:43:36;;;;;;;18.02;10.95;;;20.10;99.90;;;;;;5090915;28;20122;-68
2022/05/10 08:46:03;;;;;;;15.60;9.77;;;20.00;99.90;;;;;;5089549;28;20031;-68
2022/05/10 08:48:31;;;;;;;17.20;9.23;;;20.00;99.90;;;;;;5089198;28;20052;-68
2022/05/10 08:50:57;;;;;;;19.77;10.73;;;20.10;99.90;;;;;;5089518;28;20044;-68
2022/05/10 08:53:23;;;;;;;20.05;10.55;;;20.10;99.90;;;;;;5090840;28;20044;-68
2022/05/10 08:55:56;;;;;;;15.98;10.52;;;20.10;99.90;;;;;;5090836;28;20801;-69
2022/05/10 08:58:38;;;;;;;15.60;11.02;;;20.20;99.90;;;;;;5090538;28;20102;-69
2022/05/10 09:01:07;;;;;;;;;;;20.30;99.90;;;;;;5089999;28;20046;-69
2022/05/10 09:03:45;;;;;;;22.40;10.55;;;20.40;99.90;;;;;;5090765;28;19922;-69
2022/05/10 09:06:25;;;;;;;21.02;11.45;;;20.50;99.90;;;;;;5090651;28;20514;-68
2022/05/10 09:09:12;;;;;;;15.10;10.13;;;20.70;99.90;;;;;;5090227;28;20440;-68
2022/05/10 09:12:04;;;;;;;24.15;10.65;;;20.90;99.90;;;;;;5092314;28;20044;-69
2022/05/10 09:14:33;;;;;;;15.07;9.57;;;21.00;99.90;;;;;;5093280;28;20609;-69
2022/05/10 09:17:01;;;;;;;18.42;8.90;;;21.10;99.90;;;;;;5094424;28;20054;-69
2022/05/10 09:19:37;;;;;;;16.15;8.68;;;21.20;99.90;;;;;;5094071;28;20381;-69
2022/05/10 09:22:30;;;;;;;14.70;9.30;;;21.20;99.90;;;;;;5094354;28;20040;-69
2022/05/10 09:24:58;;;;;;;22.33;9.07;;;21.20;99.90;;;;;;5092401;28;20048;-69
2022/05/10 09:27:32;;;;;;;13.50;8.40;;;21.20;99.90;;;;;;5094874;28;20028;-69
2022/05/10 09:29:59;;;;;;;13.85;8.15;;;21.20;99.90;;;;;;5094208;28;20044;-69
2022/05/10 09:35:25;;;;;;;15.23;8.82;;;21.20;99.90;;;;;;5093894;28;20056;-69
2022/05/10 09:38:08;;;;;;;12.32;7.95;;;21.20;99.90;;;;;;5095013;28;20081;-69
2022/05/10 09:40:47;;;;;;;12.55;8.75;;;21.20;99.90;;;;;;5093787;28;20046;-69
2022/05/10 09:43:17;;;;;;;14.38;7.80;;;21.20;99.90;;;;;;5093902;28;20089;-69
2022/05/10 09:45:44;;;;;;;17.50;9.40;;;21.20;99.90;;;;;;5092640;28;20080;-69
2022/05/10 09:48:09;;;;;;;19.77;8.75;;;21.20;99.90;;;;;;5093848;28;20036;-69
2022/05/10 09:50:40;;;;;;;16.38;8.70;;;21.10;99.90;;;;;;5093454;28;20043;-69
2022/05/10 09:53:33;;;;;;;16.07;8.60;;;21.10;99.90;;;;;;5093750;28;20036;-69
2022/05/10 09:56:00;;;;;;;;;;;21.20;99.90;;;;;;5093016;28;20051;-69
2022/05/10 09:58:36;;;;;;;13.15;8.07;;;21.30;99.90;;;;;;5093314;28;19916;-69
2022/05/10 10:01:05;;;;;;;14.82;8.20;;;21.40;99.90;;;;;;5093467;28;20488;-69
2022/05/10 10:03:37;;;;;;;16.67;8.25;;;21.40;99.90;;;;;;5093834;28;20149;-69
2022/05/10 10:06:23;;;;;;;12.65;7.82;;;21.50;99.90;;;;;;5092296;28;20549;-69
2022/05/10 10:08:50;;;;;;;13.02;7.53;;;21.50;99.90;;;;;;5093219;28;20028;-69
2022/05/10 10:11:26;;;;;;;9.70;7.45;;;21.50;99.90;;;;;;5092155;28;20040;-69
2022/05/10 10:13:59;;;;;;;18.00;7.50;;;21.50;99.90;;;;;;5093323;28;20039;-69
2022/05/10 10:16:35;;;;;;;14.65;8.02;;;21.50;99.90;;;;;;5093526;28;20094;-69
2022/05/10 10:19:21;;;;;;;15.60;7.65;;;21.50;99.90;;;;;;5092849;28;20527;-69
2022/05/10 10:22:12;;;;;;;14.43;7.13;;;21.60;99.90;;;;;;5093061;28;20048;-69
2022/05/10 10:24:49;;;;;;;10.20;7.78;;;21.70;99.90;;;;;;5091217;28;20044;-69
2022/05/10 10:27:33;;;;;;;17.13;8.18;;;21.70;99.90;;;;;;5093184;28;20044;-69
2022/05/10 10:30:16;;;;;;;11.98;7.05;;;21.70;99.90;;;;;;5092834;28;20067;-69
2022/05/10 10:32:46;;;;;;;9.75;6.78;;;21.80;99.90;;;;;;5093089;28;20040;-69
2022/05/10 10:35:45;;;;;;;11.35;6.65;;;21.80;99.90;;;;;;5093075;28;20044;-69
2022/05/10 10:38:43;;;;;;;11.55;6.30;;;21.80;99.90;;;;;;5092894;28;20036;-69
2022/05/10 10:41:12;;;;;;;11.07;6.65;;;21.80;99.90;;;;;;5093084;28;20075;-69
2022/05/10 10:43:54;;;;;;;9.95;6.68;;;22.00;99.90;;;;;;5093616;28;20404;-69
2022/05/10 10:46:34;;;;;;;8.63;6.38;;;22.00;99.90;;;;;;5094121;28;20157;-67
2022/05/10 10:49:10;;;;;;;10.85;6.18;;;22.10;99.90;;;;;;5092781;28;20575;-68
2022/05/10 10:51:36;;;;;;;11.77;5.43;;;22.20;99.90;;;;;;5093303;28;20097;-67
2022/05/10 10:54:03;;;;;;;11.40;5.13;;;22.50;99.90;;;;;;5091380;28;20044;-68
2022/05/10 10:56:42;;;;;;;10.80;5.78;;;22.60;99.90;;;;;;5091015;28;20066;-67
2022/05/10 10:59:33;;;;;;;10.48;5.05;;;22.60;98.70;;;;;;5091301;28;20039;-67
2022/05/10 11:02:14;;;;;;;11.80;5.40;;;22.60;97.90;;;;;;5090381;28;20408;-67
2022/05/10 11:04:49;;;;;;;11.40;5.05;;;22.60;98.00;;;;;;5092305;28;20040;-67
2022/05/10 11:07:29;;;;;;;12.40;5.38;;;22.70;98.20;;;;;;5091081;28;20458;-67
2022/05/10 11:09:55;;;;;;;11.65;6.20;;;22.80;98.90;;;;;;5091298;28;20027;-66
2022/05/10 11:12:38;;;;;;;15.30;6.47;;;22.80;98.10;;;;;;5087283;28;20115;-65
2022/05/10 11:15:16;;;;;;;15.00;6.53;;;22.90;97.60;;;;;;5079742;28;20522;-65
2022/05/10 11:18:02;;;;;;;14.18;6.68;;;23.00;98.00;;;;;;5080463;28;20033;-65
2022/05/10 11:21:05;;;;;;;9.20;6.20;;;23.00;97.30;;;;;;5078806;28;20475;-64
2022/05/10 11:24:01;;;;;;;12.95;6.35;;;23.00;97.20;;;;;;5080004;28;20068;-65
2022/05/10 11:26:39;;;;;;;17.17;6.18;;;23.10;97.40;;;;;;5090875;28;20040;-64
2022/05/10 11:29:22;;;;;;;16.00;6.32;;;23.20;98.00;;;;;;5091620;28;20107;-65
2022/05/10 11:31:58;;;;;;;13.70;7.28;;;23.10;98.00;;;;;;5091263;28;20044;-65
2022/05/10 11:34:30;;;;;;;8.88;5.80;;;23.20;97.40;;;;;;5091380;28;20066;-65
2022/05/10 11:37:00;;;;;;;8.93;5.57;;;23.10;97.80;;;;;;5090320;28;20077;-65
2022/05/10 11:39:25;;;;;;;14.52;6.03;;;23.00;97.50;;;;;;5091640;28;20036;-65
2022/05/10 11:42:12;;;;;;;10.65;5.40;;;23.00;98.30;;;;;;5091687;28;20039;-64
2022/05/10 11:45:02;;;;;;;11.00;5.68;;;23.00;96.10;;;;;;5091533;28;20050;-65
2022/05/10 11:47:48;;;;;;;10.93;5.45;;;23.00;95.50;;;;;;5091368;28;20040;-65
2022/05/10 11:50:19;;;;;;;15.95;6.72;;;22.90;96.70;;;;;;5091383;28;20070;-65
2022/05/10 11:53:12;;;;;;;9.20;5.47;;;23.00;96.10;;;;;;5091540;28;20048;-64
2022/05/10 11:55:49;;;;;;;18.13;4.93;;;23.00;96.80;;;;;;5091408;28;20047;-69
2022/05/10 11:58:15;;;;;;;12.68;4.80;;;23.00;93.00;;;;;;5091531;28;20036;-68
2022/05/10 12:00:51;;;;;;;9.07;4.60;;;23.00;93.10;;;;;;5090389;28;20511;-68
2022/05/10 12:03:44;;;;;;;21.77;5.03;;;23.10;92.70;;;;;;5080420;28;20166;-68
2022/05/10 12:06:23;;;;;;;14.88;5.50;;;23.10;91.70;;;;;;5081786;28;20048;-68
2022/05/10 12:08:53;;;;;;;11.82;5.10;;;23.30;92.80;;;;;;5081104;28;20055;-68
2022/05/10 12:11:28;;;;;;;12.82;5.00;;;23.30;93.50;;;;;;5081923;28;20450;-68
2022/05/10 12:22:17;;;;;;;13.02;5.63;;;23.60;90.30;;;;;;5070906;28;20047;-68
2022/05/10 12:24:51;;;;;;;10.35;5.00;;;23.50;89.80;;;;;;5070925;28;20132;-68
2022/05/10 12:27:17;;;;;;;12.77;6.47;;;23.60;89.40;;;;;;5083663;28;20122;-68
2022/05/10 12:29:42;;;;;;;10.15;5.60;;;23.60;89.20;;;;;;5090688;28;20648;-68
2022/05/10 12:32:36;;;;;;;8.88;5.88;;;23.70;88.10;;;;;;5090081;28;20040;-68
2022/05/10 12:35:10;;;;;;;13.55;5.18;;;23.60;90.30;;;;;;5090369;28;20048;-68
2022/05/10 12:37:51;;;;;;;10.05;4.22;;;23.60;90.50;;;;;;5069271;28;20044;-68
2022/05/10 12:40:31;;;;;;;8.70;4.38;;;23.50;91.10;;;;;;5070425;28;20101;-68
2022/05/10 12:43:21;;;;;;;11.20;4.82;;;23.50;92.20;;;;;;5069388;28;20040;-68
2022/05/10 12:46:24;;;;;;;14.07;4.85;;;23.70;91.90;;;;;;5070637;28;20089;-68
2022/05/10 12:49:18;;;;;;;13.30;5.60;;;23.70;91.90;;;;;;5070901;28;20056;-68
2022/05/10 12:51:50;;;;;;;10.45;5.22;;;23.70;90.80;;;;;;5074692;28;20040;-68
2022/05/10 12:54:25;;;;;;;13.90;4.97;;;23.60;91.20;;;;;;5073428;28;20113;-68
2022/05/10 12:56:54;;;;;;;10.40;5.20;;;23.60;91.30;;;;;;5072790;28;20115;-68
2022/05/10 12:59:30;;;;;;;11.75;4.78;;;23.60;91.40;;;;;;5073649;28;20101;-68
2022/05/10 13:01:57;;;;;;;8.80;4.65;;;23.50;92.00;;;;;;5074180;28;20546;-68
2022/05/10 13:04:29;;;;;;;17.83;6.18;;;23.50;92.60;;;;;;5074146;28;20035;-68
2022/05/10 13:07:00;;;;;;;8.77;4.47;;;23.60;92.00;;;;;;5074151;28;20506;-68
2022/05/10 13:09:36;;;;;;;11.38;5.35;;;23.70;92.30;;;;;;5074119;28;20079;-68